Time;durP1;ratioP1;P1;durP2;ratioP2;P2;SDS_P1;SDS_P2;PMS_P1;PMS_P2;Temp;Humidity;BMP_temperature;BMP_pressure;BME280_temperature;BME280_humidity;BME280_pressure;Samples;Min_cycle;Max_cycle;Signal;HPM_P1;HPM_P2
2021/06/03 00:00:40;;;;;;;6.38;3.53;;;;;;;20.45;63.21;100278.69;5056743;28;20045;-76
2021/06/03 00:03:08;;;;;;;7.55;2.95;;;;;;;20.40;63.32;100281.03;5057673;28;20106;-76
2021/06/03 00:05:42;;;;;;;6.07;2.78;;;;;;;20.35;62.75;100277.91;5054510;28;20064;-77
2021/06/03 00:08:10;;;;;;;4.47;2.85;;;;;;;20.36;62.84;100282.31;5057192;28;20393;-78
2021/06/03 00:10:42;;;;;;;4.00;2.80;;;;;;;20.26;63.16;100281.56;5057518;28;20482;-75
2021/06/03 00:13:09;;;;;;;6.38;3.25;;;;;;;20.30;63.08;100282.94;5057345;28;20053;-75
2021/06/03 00:15:36;;;;;;;6.57;2.90;;;;;;;20.28;63.19;100284.97;5057254;28;20347;-75
2021/06/03 00:18:04;;;;;;;6.88;2.88;;;;;;;20.25;63.18;100279.88;5057141;28;20048;-76
2021/06/03 00:20:33;;;;;;;5.03;3.05;;;;;;;20.16;63.56;100279.75;5052665;28;20103;-75
2021/06/03 00:23:01;;;;;;;7.43;3.40;;;;;;;20.10;63.88;100285.78;5036227;28;20049;-75
2021/06/03 00:25:28;;;;;;;3.30;2.72;;;;;;;20.10;63.78;100290.38;5037251;28;20053;-75
2021/06/03 00:27:56;;;;;;;4.72;3.15;;;;;;;19.95;63.86;100290.91;5037291;28;20386;-75
2021/06/03 00:30:23;;;;;;;4.45;3.60;;;;;;;19.86;63.69;100284.50;5036176;28;20084;-75
2021/06/03 00:32:50;;;;;;;11.60;3.55;;;;;;;19.78;63.71;100276.28;5036059;28;20053;-76
2021/06/03 00:35:19;;;;;;;4.00;2.83;;;;;;;19.78;64.03;100279.00;5037062;28;20057;-76
2021/06/03 00:37:49;;;;;;;8.40;3.10;;;;;;;19.75;63.73;100279.28;5036305;28;20075;-76
2021/06/03 00:40:18;;;;;;;5.68;2.90;;;;;;;19.72;63.64;100275.00;5037227;28;20128;-75
2021/06/03 00:42:45;;;;;;;3.50;2.45;;;;;;;19.76;63.27;100270.13;5036033;28;20061;-75
2021/06/03 00:45:15;;;;;;;3.50;2.58;;;;;;;19.63;63.66;100270.50;5036719;28;20079;-76
2021/06/03 00:47:43;;;;;;;3.22;2.75;;;;;;;19.75;62.55;100266.59;5037069;28;20053;-75
2021/06/03 00:50:12;;;;;;;5.70;3.58;;;;;;;19.63;62.57;100262.38;5036818;28;20462;-75
2021/06/03 00:52:39;;;;;;;7.63;2.70;;;;;;;19.67;62.50;100267.34;5037199;28;20096;-76
2021/06/03 00:55:07;;;;;;;4.85;2.40;;;;;;;19.61;62.03;100258.97;5036697;28;20061;-75
2021/06/03 00:57:35;;;;;;;3.63;2.55;;;;;;;19.58;62.05;100254.72;5036809;28;20049;-75
2021/06/03 01:00:05;;;;;;;4.65;2.33;;;;;;;19.58;62.10;100257.44;5036777;28;20156;-75
2021/06/03 01:02:32;;;;;;;3.00;2.15;;;;;;;19.53;62.02;100262.44;5036970;28;20083;-74
2021/06/03 01:04:59;;;;;;;6.35;2.35;;;;;;;19.59;62.18;100269.97;5036545;28;20057;-75
2021/06/03 01:07:25;;;;;;;2.88;2.13;;;;;;;19.40;61.67;100241.97;5035643;28;20057;-76
2021/06/03 01:10:04;;;;;;;2.78;2.40;;;;;;;19.54;61.87;100278.53;5035320;28;20513;-75
2021/06/03 01:12:47;;;;;;;2.47;2.17;;;;;;;19.64;61.45;100273.06;5035395;28;20320;-74
2021/06/03 01:15:16;;;;;;;4.38;2.30;;;;;;;19.51;61.64;100259.03;5036488;28;20103;-74
2021/06/03 01:17:43;;;;;;;4.07;2.63;;;;;;;19.54;62.04;100270.41;5036227;28;20389;-75
2021/06/03 01:20:12;;;;;;;4.60;2.63;;;;;;;19.46;62.40;100258.63;5034934;28;20053;-76
2021/06/03 01:22:58;;;;;;;3.45;2.50;;;;;;;19.50;62.29;100269.00;5036121;28;20490;-75
2021/06/03 01:25:26;;;;;;;3.65;2.70;;;;;;;19.39;62.39;100253.81;5036453;28;20107;-76
2021/06/03 01:27:53;;;;;;;3.25;2.33;;;;;;;19.48;62.48;100267.44;5035032;28;20052;-76
2021/06/03 01:30:27;;;;;;;3.75;2.40;;;;;;;19.48;62.32;100268.31;5034872;28;20439;-76
2021/06/03 01:33:15;;;;;;;2.97;2.63;;;;;;;19.50;62.49;100260.03;5036006;28;20049;-76
2021/06/03 01:35:47;;;;;;;2.85;2.55;;;;;;;19.38;62.88;100257.53;5035892;28;20414;-75
2021/06/03 01:38:17;;;;;;;4.20;2.70;;;;;;;19.40;62.68;100263.63;5035192;28;20343;-76
2021/06/03 01:40:46;;;;;;;5.65;2.65;;;;;;;19.44;62.73;100255.22;5036348;28;20053;-76
2021/06/03 01:43:16;;;;;;;3.85;2.60;;;;;;;19.41;63.18;100259.91;5035800;28;20419;-76
2021/06/03 01:45:43;;;;;;;3.80;2.25;;;;;;;19.35;63.43;100268.63;5035685;28;20099;-76
2021/06/03 01:48:12;;;;;;;5.10;2.70;;;;;;;19.37;63.37;100266.63;5035729;28;20509;-75
2021/06/03 01:50:41;;;;;;;4.90;2.70;;;;;;;19.32;63.57;100270.78;5035666;28;20107;-76
2021/06/03 01:53:08;;;;;;;4.18;2.75;;;;;;;19.37;63.65;100272.06;5035630;28;20501;-75
2021/06/03 01:55:37;;;;;;;3.50;2.33;;;;;;;19.29;63.98;100277.38;5034862;28;20054;-76
2021/06/03 01:58:04;;;;;;;3.97;2.70;;;;;;;19.26;64.04;100274.94;5034474;28;20363;-76
2021/06/03 02:00:32;;;;;;;4.60;2.70;;;;;;;19.31;64.45;100277.19;5035034;28;20099;-76
2021/06/03 02:02:59;;;;;;;6.32;2.58;;;;;;;19.29;64.51;100273.78;5035705;28;20107;-77
2021/06/03 02:05:26;;;;;;;4.32;2.50;;;;;;;19.31;64.72;100274.50;5035523;28;20099;-76
2021/06/03 02:07:53;;;;;;;5.32;2.58;;;;;;;19.28;64.72;100267.50;5036053;28;20057;-76
2021/06/03 02:10:22;;;;;;;4.70;2.60;;;;;;;19.25;65.06;100273.22;5035911;28;20053;-76
2021/06/03 02:13:25;;;;;;;4.95;2.60;;;;;;;19.29;65.34;100274.66;5036158;28;20423;-73
2021/06/03 02:15:59;;;;;;;5.30;2.33;;;;;;;19.23;65.60;100275.25;5033796;28;20049;-77
2021/06/03 02:18:35;;;;;;;5.70;2.75;;;;;;;19.16;65.91;100271.44;5035418;28;20049;-75
2021/06/03 02:21:05;;;;;;;3.72;2.55;;;;;;;19.16;66.11;100266.00;5035155;28;20063;-74
2021/06/03 02:23:32;;;;;;;4.43;3.38;;;;;;;19.06;66.39;100261.47;5035676;28;20091;-74
2021/06/03 02:26:02;;;;;;;5.60;2.60;;;;;;;19.22;66.41;100279.78;5035939;28;20053;-75
2021/06/03 02:28:30;;;;;;;4.45;2.60;;;;;;;19.16;66.28;100274.97;5036008;28;20056;-75
2021/06/03 02:30:58;;;;;;;5.38;2.38;;;;;;;19.19;66.28;100277.41;5039422;28;20049;-75
2021/06/03 02:33:27;;;;;;;3.88;2.40;;;;;;;19.28;66.81;100289.16;5039981;28;20054;-74
2021/06/03 02:35:55;;;;;;;4.53;2.65;;;;;;;19.24;66.64;100282.34;5040899;28;20045;-76
2021/06/03 02:38:24;;;;;;;3.90;2.58;;;;;;;19.21;67.13;100288.03;5040693;28;20107;-75
2021/06/03 02:40:54;;;;;;;4.95;2.70;;;;;;;19.23;67.22;100280.66;5041342;28;20057;-75
2021/06/03 02:43:20;;;;;;;3.95;2.80;;;;;;;19.14;67.31;100272.41;5036801;28;20466;-75
2021/06/03 02:45:47;;;;;;;3.95;2.72;;;;;;;19.14;67.90;100285.94;5035137;28;20480;-75
2021/06/03 02:48:14;;;;;;;3.72;2.75;;;;;;;19.22;67.79;100292.44;5034658;28;20060;-75
2021/06/03 02:50:41;;;;;;;2.92;2.60;;;;;;;19.25;67.62;100290.34;5034018;28;20132;-75
2021/06/03 02:53:08;;;;;;;6.88;3.08;;;;;;;19.25;67.74;100287.63;5036330;28;20057;-75
2021/06/03 02:55:35;;;;;;;3.83;2.70;;;;;;;19.19;67.83;100279.22;5036169;28;20434;-75
2021/06/03 02:58:02;;;;;;;6.45;2.55;;;;;;;19.25;67.55;100297.59;5036662;28;20394;-75
2021/06/03 03:00:31;;;;;;;4.18;3.03;;;;;;;19.12;68.23;100285.22;5037162;28;20049;-76
2021/06/03 03:02:59;;;;;;;4.90;3.03;;;;;;;19.27;67.96;100304.56;5035971;28;20111;-76
2021/06/03 03:05:26;;;;;;;4.43;2.88;;;;;;;19.28;68.00;100299.97;5036705;28;20049;-75
2021/06/03 03:07:54;;;;;;;4.15;2.95;;;;;;;19.30;67.68;100305.25;5036209;28;20442;-75
2021/06/03 03:10:30;;;;;;;7.57;3.22;;;;;;;19.30;68.48;100300.72;5035961;28;20049;-76
2021/06/03 03:12:57;;;;;;;4.03;3.00;;;;;;;19.27;68.36;100292.88;5035367;28;20053;-75
2021/06/03 03:15:25;;;;;;;5.47;2.55;;;;;;;19.29;68.44;100307.13;5034898;28;20462;-76
2021/06/03 03:17:52;;;;;;;6.63;3.58;;;;;;;19.36;68.35;100307.38;5035592;28;20058;-75
2021/06/03 03:20:21;;;;;;;3.22;2.28;;;;;;;19.39;68.34;100313.34;5036313;28;20056;-75
2021/06/03 03:22:50;;;;;;;5.27;2.97;;;;;;;19.36;68.29;100321.78;5035946;28;20049;-75
2021/06/03 03:25:17;;;;;;;4.25;3.17;;;;;;;19.24;69.07;100312.97;5035587;28;20084;-75
2021/06/03 03:27:47;;;;;;;5.85;3.28;;;;;;;19.32;69.30;100333.00;5034685;28;20050;-76
2021/06/03 03:30:16;;;;;;;7.00;3.17;;;;;;;19.34;69.32;100333.75;5034977;28;20045;-74
2021/06/03 03:32:43;;;;;;;4.63;2.90;;;;;;;19.31;68.92;100326.78;5034372;28;20053;-75
2021/06/03 03:35:10;;;;;;;6.00;3.88;;;;;;;19.38;69.24;100336.00;5034882;28;20372;-75
2021/06/03 03:37:38;;;;;;;4.45;3.25;;;;;;;19.35;69.49;100336.28;5033315;28;20045;-75
2021/06/03 03:40:10;;;;;;;8.82;3.45;;;;;;;19.34;69.92;100347.28;5033908;28;20049;-76
2021/06/03 03:42:37;;;;;;;3.45;2.97;;;;;;;19.33;69.71;100340.16;5038359;28;20049;-76
2021/06/03 03:45:08;;;;;;;4.45;2.80;;;;;;;19.34;70.02;100345.41;5037377;28;20096;-75
2021/06/03 03:47:34;;;;;;;6.35;3.85;;;;;;;19.31;70.12;100353.81;5038035;28;20057;-75
2021/06/03 03:50:03;;;;;;;4.22;3.03;;;;;;;19.38;70.54;100349.53;5038442;28;20041;-76
2021/06/03 03:52:30;;;;;;;4.13;3.10;;;;;;;19.37;70.39;100353.25;5038199;28;20049;-75
2021/06/03 03:54:56;;;;;;;7.35;3.13;;;;;;;19.40;70.62;100347.53;5037775;28;20057;-75
2021/06/03 03:57:24;;;;;;;5.13;3.33;;;;;;;19.44;70.51;100352.66;5037760;28;20053;-75
2021/06/03 03:59:51;;;;;;;3.33;2.75;;;;;;;19.50;70.53;100360.19;5037984;28;20049;-74
2021/06/03 04:02:17;;;;;;;5.15;3.00;;;;;;;19.53;70.35;100362.59;5037779;28;20068;-75
2021/06/03 04:04:44;;;;;;;6.22;3.10;;;;;;;19.53;70.75;100362.59;5036758;28;20053;-75
2021/06/03 04:07:11;;;;;;;7.20;3.22;;;;;;;19.53;70.94;100366.16;5037925;28;20103;-75
2021/06/03 04:09:37;;;;;;;7.55;3.33;;;;;;;19.51;71.13;100361.91;5037334;28;20144;-76
2021/06/03 04:12:05;;;;;;;4.15;3.10;;;;;;;19.44;71.60;100352.66;5036565;28;20053;-75
2021/06/03 04:14:31;;;;;;;6.97;3.50;;;;;;;19.64;71.10;100370.53;5037771;28;20064;-75
2021/06/03 04:16:58;;;;;;;5.35;3.20;;;;;;;19.61;71.28;100360.00;5036695;28;20103;-74
2021/06/03 04:19:25;;;;;;;7.78;3.92;;;;;;;19.67;70.92;100366.69;5037126;28;20346;-75
2021/06/03 04:21:52;;;;;;;7.72;3.05;;;;;;;19.68;71.36;100365.69;5037488;28;20191;-76
2021/06/03 04:24:19;;;;;;;7.50;3.42;;;;;;;19.70;71.22;100379.06;5037368;28;20054;-76
2021/06/03 04:26:45;;;;;;;8.32;3.35;;;;;;;19.65;71.26;100366.81;5036039;28;20054;-74
2021/06/03 04:29:12;;;;;;;7.28;3.33;;;;;;;19.72;71.52;100369.78;5037401;28;20111;-75
2021/06/03 04:31:39;;;;;;;5.88;3.33;;;;;;;19.70;71.95;100382.63;5037440;28;20405;-76
2021/06/03 04:34:05;;;;;;;6.82;3.33;;;;;;;19.66;73.29;100376.66;5031080;28;20501;-76
2021/06/03 04:36:32;;;;;;;6.60;3.47;;;;;;;19.60;73.54;100377.25;5037148;28;20122;-75
2021/06/03 04:38:59;;;;;;;5.57;3.47;;;;;;;19.58;74.52;100381.09;5037078;28;20050;-75
2021/06/03 04:41:25;;;;;;;8.38;3.65;;;;;;;19.34;76.87;100371.63;5035914;28;20041;-76
2021/06/03 04:43:52;;;;;;;6.85;3.38;;;;;;;19.39;76.94;100386.41;5035753;28;20084;-77
2021/06/03 04:46:19;;;;;;;4.70;3.38;;;;;;;19.35;77.02;100378.75;5041754;28;20049;-75
2021/06/03 04:48:45;;;;;;;7.13;3.63;;;;;;;19.32;77.81;100382.59;5056977;28;20053;-75
2021/06/03 04:51:12;;;;;;;7.97;3.72;;;;;;;19.27;78.54;100390.28;5056291;28;20049;-76
2021/06/03 04:53:39;;;;;;;4.40;3.80;;;;;;;19.27;78.31;100396.56;5056633;28;20114;-76
2021/06/03 04:56:06;;;;;;;8.98;4.15;;;;;;;19.33;78.31;100400.53;5055809;28;20049;-77
2021/06/03 04:58:32;;;;;;;8.32;3.75;;;;;;;19.33;78.22;100400.53;5055406;28;20388;-77
2021/06/03 05:00:59;;;;;;;7.22;3.60;;;;;;;19.33;77.97;100391.56;5054668;28;20319;-76
2021/06/03 05:03:25;;;;;;;7.95;3.70;;;;;;;19.35;78.42;100398.53;5054297;28;20048;-77
2021/06/03 05:05:52;;;;;;;7.97;3.80;;;;;;;19.35;77.63;100386.88;5054504;28;20056;-77
2021/06/03 05:08:19;;;;;;;7.97;3.70;;;;;;;19.45;77.47;100408.50;5053162;28;20126;-77
2021/06/03 05:10:46;;;;;;;6.40;3.92;;;;;;;19.53;76.65;100408.63;5051065;28;20041;-77
2021/06/03 05:13:13;;;;;;;8.15;3.90;;;;;;;19.49;77.33;100416.19;5044428;28;20115;-77
2021/06/03 05:15:40;;;;;;;7.00;3.53;;;;;;;19.47;76.83;100420.88;5044218;28;20059;-77
2021/06/03 05:18:07;;;;;;;5.05;3.50;;;;;;;19.48;76.83;100406.34;5046839;28;20099;-76
2021/06/03 05:20:35;;;;;;;4.95;3.80;;;;;;;19.49;76.95;100413.47;5043330;28;20103;-77
2021/06/03 05:23:02;;;;;;;8.07;4.25;;;;;;;19.59;77.00;100421.56;5045096;28;20045;-77
2021/06/03 05:25:31;;;;;;;6.47;3.65;;;;;;;19.61;75.59;100416.84;5037878;28;20055;-77
2021/06/03 05:27:58;;;;;;;5.65;3.30;;;;;;;19.63;75.47;100414.88;5045722;28;20389;-76
2021/06/03 05:30:25;;;;;;;7.28;3.85;;;;;;;19.67;76.31;100408.13;5037521;28;20049;-76
2021/06/03 05:32:52;;;;;;;5.85;3.70;;;;;;;19.66;77.31;100425.38;5047582;28;20385;-77
2021/06/03 05:35:21;;;;;;;7.57;3.88;;;;;;;19.67;77.12;100424.38;5054763;28;20107;-77
2021/06/03 05:37:49;;;;;;;5.80;4.10;;;;;;;19.63;77.82;100423.00;5056010;28;20049;-77
2021/06/03 05:40:19;;;;;;;5.75;3.53;;;;;;;19.63;77.79;100417.56;5054750;28;20045;-77
2021/06/03 05:42:48;;;;;;;3.53;3.22;;;;;;;19.70;77.74;100435.91;5056402;28;20052;-77
2021/06/03 05:45:15;;;;;;;12.43;4.00;;;;;;;19.80;76.72;100434.91;5052219;28;20098;-78
2021/06/03 05:47:43;;;;;;;5.82;3.85;;;;;;;19.79;77.02;100443.19;5051623;28;20053;-76
2021/06/03 05:50:12;;;;;;;9.30;4.05;;;;;;;19.85;75.76;100436.31;5055747;28;20045;-79
2021/06/03 05:52:41;;;;;;;9.45;3.63;;;;;;;19.89;76.10;100438.56;5047297;28;20446;-78
2021/06/03 05:55:09;;;;;;;8.75;3.65;;;;;;;19.95;75.88;100450.72;5044944;28;20049;-77
2021/06/03 05:57:36;;;;;;;5.40;3.78;;;;;;;19.91;75.98;100447.41;5045042;28;20049;-75
2021/06/03 06:00:08;;;;;;;8.18;3.80;;;;;;;19.94;76.46;100459.81;5041260;28;20099;-75
2021/06/03 06:08:05;;;;;;;5.78;3.45;;;;;;;20.01;75.07;100454.69;5043002;28;20053;-76
2021/06/03 06:10:32;;;;;;;6.35;4.15;;;;;;;20.02;75.20;100470.78;5046324;28;20049;-76
2021/06/03 06:12:59;;;;;;;8.15;3.90;;;;;;;20.07;74.78;100470.34;5038088;28;20103;-76
2021/06/03 06:15:26;;;;;;;6.20;3.80;;;;;;;20.12;74.93;100470.75;5035251;28;20050;-77
2021/06/03 06:17:53;;;;;;;4.70;4.10;;;;;;;20.24;74.61;100462.41;5035723;28;20057;-76
2021/06/03 06:20:21;;;;;;;5.60;3.78;;;;;;;20.24;74.69;100475.97;5051531;28;20045;-76
2021/06/03 06:22:48;;;;;;;7.03;3.97;;;;;;;20.26;74.20;100482.13;5054812;28;20053;-75
2021/06/03 06:25:14;;;;;;;9.90;3.80;;;;;;;20.27;73.79;100484.66;5054720;28;20060;-75
2021/06/03 06:27:41;;;;;;;5.05;3.70;;;;;;;20.30;74.03;100475.38;5056037;28;20118;-75
2021/06/03 06:30:09;;;;;;;8.27;4.82;;;;;;;20.27;74.87;100479.22;5055185;28;20438;-75
2021/06/03 06:32:36;;;;;;;7.30;4.45;;;;;;;20.12;76.87;100487.03;5056208;28;20515;-75
2021/06/03 06:35:03;;;;;;;5.88;3.67;;;;;;;20.00;77.18;100489.03;5056169;28;20075;-76
2021/06/03 06:37:30;;;;;;;6.68;4.15;;;;;;;19.93;78.84;100494.16;5055325;28;20130;-76
2021/06/03 06:39:58;;;;;;;10.45;4.32;;;;;;;19.94;78.95;100492.31;5055829;28;20044;-76
2021/06/03 06:42:26;;;;;;;6.57;4.10;;;;;;;19.98;79.89;100496.47;5055857;28;20045;-75
2021/06/03 06:44:52;;;;;;;5.55;4.03;;;;;;;20.00;79.90;100496.31;5054063;28;20060;-74
2021/06/03 06:47:19;;;;;;;8.05;5.00;;;;;;;20.00;80.79;100499.03;5055234;28;20122;-75
2021/06/03 06:49:46;;;;;;;9.50;5.20;;;;;;;20.00;80.73;100499.88;5054937;28;20357;-74
2021/06/03 06:52:12;;;;;;;6.22;4.40;;;;;;;20.01;78.47;100501.59;5054068;28;20496;-73
2021/06/03 06:54:39;;;;;;;8.70;4.38;;;;;;;19.98;79.30;100511.88;5054878;28;20053;-75
2021/06/03 06:57:06;;;;;;;6.28;3.95;;;;;;;19.98;79.37;100509.16;5054851;28;20056;-75
2021/06/03 06:59:33;;;;;;;6.32;4.40;;;;;;;19.82;82.57;100507.88;5054924;28;20049;-76
2021/06/03 07:02:00;;;;;;;11.32;5.05;;;;;;;19.59;82.81;100497.38;5053817;28;20052;-74
2021/06/03 07:04:27;;;;;;;7.63;4.47;;;;;;;19.47;84.42;100503.94;5055390;28;20052;-75
2021/06/03 07:06:54;;;;;;;15.90;6.78;;;;;;;19.25;88.70;100516.75;5054202;28;20064;-75
2021/06/03 07:09:20;;;;;;;17.92;6.00;;;;;;;19.01;92.07;100520.69;5054500;28;20049;-74
2021/06/03 07:11:47;;;;;;;12.13;5.35;;;;;;;18.81;93.08;100520.66;5054698;28;20389;-75
2021/06/03 07:14:14;;;;;;;9.13;6.13;;;;;;;18.71;93.36;100526.06;5054433;28;20044;-75
2021/06/03 07:16:41;;;;;;;12.40;5.43;;;;;;;18.61;93.75;100521.63;5057537;28;20051;-74
2021/06/03 07:19:07;;;;;;;11.75;5.72;;;;;;;18.64;95.35;100534.84;5051623;28;20398;-76
2021/06/03 07:21:35;;;;;;;10.10;5.45;;;;;;;18.49;95.60;100515.44;5038708;28;20297;-75
2021/06/03 07:24:01;;;;;;;9.77;5.80;;;;;;;18.58;96.10;100531.69;5037493;28;20060;-74
2021/06/03 07:26:28;;;;;;;8.75;5.38;;;;;;;18.57;94.60;100542.63;5038404;28;20049;-74
2021/06/03 07:28:55;;;;;;;9.02;5.53;;;;;;;18.48;93.86;100529.94;5038616;28;20060;-75
2021/06/03 07:31:21;;;;;;;8.32;5.45;;;;;;;18.52;94.69;100547.63;5038218;28;20042;-75
2021/06/03 07:33:48;;;;;;;7.28;5.20;;;;;;;18.54;96.33;100543.78;5038516;28;20163;-75
2021/06/03 07:36:15;;;;;;;10.50;5.55;;;;;;;18.54;95.21;100541.09;5037183;28;20057;-74
2021/06/03 07:38:42;;;;;;;7.32;5.40;;;;;;;18.65;96.46;100544.66;5038215;28;20071;-73
2021/06/03 07:41:08;;;;;;;12.40;5.95;;;;;;;18.61;97.05;100535.97;5038390;28;20060;-75
2021/06/03 07:43:35;;;;;;;9.13;5.82;;;;;;;18.63;97.83;100525.88;5038128;28;20454;-74
2021/06/03 07:46:02;;;;;;;7.05;5.28;;;;;;;18.83;96.84;100540.31;5038106;28;20049;-74
2021/06/03 07:48:29;;;;;;;8.45;5.97;;;;;;;18.76;94.40;100536.44;5038210;28;20063;-75
2021/06/03 07:50:56;;;;;;;8.35;5.95;;;;;;;18.83;95.41;100556.53;5038209;28;20049;-74
2021/06/03 07:53:22;;;;;;;7.00;5.82;;;;;;;18.86;96.60;100556.25;5038127;28;20057;-72
2021/06/03 07:55:49;;;;;;;10.90;5.50;;;;;;;18.93;97.07;100556.56;5037987;28;20045;-73
2021/06/03 07:58:17;;;;;;;11.30;5.68;;;;;;;18.95;94.86;100551.03;5037795;28;20045;-74
2021/06/03 08:00:44;;;;;;;7.70;5.88;;;;;;;18.96;96.14;100550.03;5020337;28;20443;-73
2021/06/03 08:03:11;;;;;;;9.57;6.22;;;;;;;18.97;98.12;100563.38;5037895;28;20103;-76
2021/06/03 08:05:39;;;;;;;10.57;6.30;;;;;;;18.96;98.06;100566.25;5037743;28;20053;-73
2021/06/03 08:08:06;;;;;;;10.32;7.40;;;;;;;18.95;99.17;100572.66;5037489;28;20103;-76
2021/06/03 08:10:39;;;;;;;12.07;6.68;;;;;;;18.94;99.16;100573.63;5037800;28;20045;-73
2021/06/03 08:13:10;;;;;;;8.48;6.53;;;;;;;18.88;98.45;100561.53;5037454;28;20056;-74
2021/06/03 08:15:39;;;;;;;8.60;6.90;;;;;;;18.99;99.92;100582.19;5037729;28;20049;-74
2021/06/03 08:18:06;;;;;;;11.88;7.50;;;;;;;18.96;99.59;100577.06;5036640;28;20131;-74
2021/06/03 08:20:37;;;;;;;8.82;7.50;;;;;;;18.99;100.00;100574.06;5055658;28;20056;-73
2021/06/03 08:23:06;;;;;;;12.35;7.15;;;;;;;18.99;100.00;100566.81;5056235;28;20060;-74
2021/06/03 08:25:36;;;;;;;9.52;6.90;;;;;;;18.95;100.00;100556.44;5056737;28;20084;-73
2021/06/03 08:28:03;;;;;;;11.97;7.03;;;;;;;19.04;100.00;100571.84;5056459;28;20075;-73
2021/06/03 08:30:34;;;;;;;12.05;6.85;;;;;;;19.08;100.00;100569.72;5057226;28;20049;-74
2021/06/03 08:33:04;;;;;;;11.52;7.57;;;;;;;19.12;100.00;100566.59;5056146;28;20053;-74
2021/06/03 08:35:31;;;;;;;9.98;7.53;;;;;;;19.21;100.00;100578.44;5057155;28;20073;-74
2021/06/03 08:38:03;;;;;;;9.93;7.10;;;;;;;19.23;100.00;100570.19;5057020;28;20106;-74
2021/06/03 08:40:33;;;;;;;10.85;6.85;;;;;;;19.23;100.00;100573.72;5057069;28;20053;-74
2021/06/03 08:43:02;;;;;;;10.52;7.07;;;;;;;19.24;98.43;100574.59;5056870;28;20449;-74
2021/06/03 08:45:32;;;;;;;7.55;6.45;;;;;;;19.20;98.15;100574.00;5057151;28;20110;-73
2021/06/03 08:47:59;;;;;;;;;;;;;;;19.17;98.45;100585.09;5057320;28;20060;-73
2021/06/03 08:50:29;;;;;;;9.63;7.18;;;;;;;19.08;99.04;100578.69;5056869;28;19921;-74
2021/06/03 08:52:57;;;;;;;11.30;7.30;;;;;;;19.09;100.00;100583.13;5056977;28;20057;-75
2021/06/03 08:58:13;;;;;;;11.65;7.65;;;;;;;19.03;100.00;100583.66;5056724;28;20045;-75
2021/06/03 09:00:41;;;;;;;10.00;7.30;;;;;;;19.05;100.00;100586.22;5056649;28;20045;-73
2021/06/03 09:03:09;;;;;;;10.70;7.85;;;;;;;18.83;100.00;100553.81;5056465;28;20053;-73
2021/06/03 09:05:37;;;;;;;12.05;7.22;;;;;;;19.02;98.61;100584.66;5056506;28;20053;-74
2021/06/03 09:08:33;;;;;;;9.55;7.13;;;;;;;18.97;100.00;100579.63;5056472;28;20114;-74
2021/06/03 09:11:01;;;;;;;9.00;6.30;;;;;;;19.03;99.29;100582.78;5056543;28;20056;-74
2021/06/03 09:13:31;;;;;;;9.00;6.82;;;;;;;19.07;99.29;100582.38;5056256;28;20057;-74
2021/06/03 09:16:08;;;;;;;11.02;7.57;;;;;;;19.11;100.00;100586.53;5056512;28;20048;-75
2021/06/03 09:18:43;;;;;;;10.18;7.53;;;;;;;19.18;99.92;100572.44;5052994;28;20450;-74
2021/06/03 09:21:25;;;;;;;8.90;6.82;;;;;;;19.27;99.83;100574.28;5035254;28;20049;-73
2021/06/03 09:24:06;;;;;;;8.88;7.22;;;;;;;19.30;97.90;100571.31;5036130;28;20469;-74
2021/06/03 09:26:55;;;;;;;11.13;7.25;;;;;;;19.46;98.29;100569.91;5035130;28;20103;-74
2021/06/03 09:29:27;;;;;;;9.00;7.70;;;;;;;19.54;99.48;100572.75;5035920;28;20386;-74
2021/06/03 09:32:08;;;;;;;12.20;7.93;;;;;;;19.59;96.75;100578.59;5036062;28;20136;-74
2021/06/03 09:34:36;;;;;;;14.50;9.57;;;;;;;19.72;98.50;100582.88;5035851;28;20572;-73
2021/06/03 09:37:05;;;;;;;13.20;8.40;;;;;;;19.89;97.42;100574.00;5035903;28;20485;-73
2021/06/03 09:39:33;;;;;;;9.68;8.23;;;;;;;20.00;97.10;100572.19;5035991;28;20053;-74
2021/06/03 09:42:06;;;;;;;14.73;8.45;;;;;;;20.07;97.27;100563.34;5036080;28;20049;-74
2021/06/03 09:44:35;;;;;;;11.98;8.57;;;;;;;20.24;94.71;100578.94;5035729;28;20072;-74
2021/06/03 09:47:28;;;;;;;10.73;8.15;;;;;;;20.20;94.13;100571.13;5036018;28;20196;-74
2021/06/03 09:49:55;;;;;;;10.90;8.82;;;;;;;20.27;95.04;100584.09;5035651;28;20049;-74
2021/06/03 09:52:25;;;;;;;12.75;7.95;;;;;;;20.32;94.43;100576.38;5035866;28;20091;-74
2021/06/03 09:54:56;;;;;;;9.05;8.15;;;;;;;20.48;93.47;100579.31;5035776;28;20053;-74
2021/06/03 09:57:33;;;;;;;12.95;8.68;;;;;;;20.54;93.99;100585.16;5035926;28;20053;-74
2021/06/03 10:00:08;;;;;;;11.48;8.30;;;;;;;20.62;91.14;100579.81;5035739;28;20049;-74
2021/06/03 10:02:38;;;;;;;9.18;7.75;;;;;;;20.76;93.37;100581.22;5035745;28;20057;-75
2021/06/03 10:05:19;;;;;;;10.57;7.63;;;;;;;20.91;92.87;100584.28;5034343;28;20080;-74
2021/06/03 10:08:05;;;;;;;9.85;7.80;;;;;;;21.15;91.42;100575.56;5035518;28;20060;-75
2021/06/03 10:10:35;;;;;;;10.15;7.15;;;;;;;21.17;91.12;100579.00;5035179;28;20053;-75
2021/06/03 10:13:10;;;;;;;9.03;7.60;;;;;;;21.34;89.80;100568.28;5035383;28;20063;-75
2021/06/03 10:15:39;;;;;;;8.50;7.00;;;;;;;21.68;89.41;100577.63;5035552;28;20108;-75
2021/06/03 10:18:09;;;;;;;11.02;8.15;;;;;;;21.82;87.35;100566.22;5035385;28;20072;-75
2021/06/03 10:20:53;;;;;;;10.77;6.88;;;;;;;22.04;86.64;100568.56;5053766;28;20102;-74
2021/06/03 10:23:23;;;;;;;10.27;6.78;;;;;;;22.16;85.99;100569.19;5055253;28;20131;-74
2021/06/03 10:25:54;;;;;;;7.30;6.00;;;;;;;22.24;84.61;100569.22;5055545;28;20118;-74
2021/06/03 10:28:24;;;;;;;6.43;5.80;;;;;;;22.29;87.15;100571.44;5055353;28;20053;-75
2021/06/03 10:30:53;;;;;;;8.07;6.32;;;;;;;22.29;83.21;100564.16;5056684;28;20590;-74
2021/06/03 10:33:26;;;;;;;7.78;6.15;;;;;;;22.41;83.70;100563.88;5058067;28;20059;-75
2021/06/03 10:35:57;;;;;;;7.28;6.45;;;;;;;22.32;84.85;100571.97;5058751;28;20053;-75
2021/06/03 10:38:26;;;;;;;11.18;6.43;;;;;;;22.33;82.53;100570.97;5055897;28;20053;-75
2021/06/03 10:40:58;;;;;;;7.82;6.25;;;;;;;22.31;81.33;100567.56;5055166;28;20496;-76
2021/06/03 10:43:27;;;;;;;9.07;6.75;;;;;;;22.50;81.55;100558.31;5055405;28;20524;-75
2021/06/03 10:45:54;;;;;;;6.90;6.20;;;;;;;22.87;78.71;100572.59;5054947;28;20053;-76
2021/06/03 10:48:20;;;;;;;8.60;6.10;;;;;;;23.26;77.18;100575.78;5053987;28;20349;-75
2021/06/03 10:50:52;;;;;;;7.45;6.03;;;;;;;23.20;77.79;100560.94;5057984;28;20049;-75
2021/06/03 10:53:23;;;;;;;8.48;6.35;;;;;;;23.38;76.63;100568.16;5059015;28;20071;-74
2021/06/03 10:55:53;;;;;;;11.32;6.72;;;;;;;23.35;76.36;100574.81;5058697;28;20445;-75
2021/06/03 10:58:47;;;;;;;9.32;6.50;;;;;;;23.25;75.82;100576.81;5058858;28;20053;-75
2021/06/03 11:01:17;;;;;;;8.07;6.65;;;;;;;23.00;74.39;100577.59;5055194;28;20098;-75
2021/06/03 11:03:51;;;;;;;8.40;6.57;;;;;;;22.78;78.90;100574.44;5059227;28;20057;-75
2021/06/03 11:06:21;;;;;;;10.02;6.47;;;;;;;22.60;77.97;100577.25;5058714;28;20053;-74
2021/06/03 11:08:57;;;;;;;;;;;;;;;22.50;77.58;100581.94;5059134;28;20061;-74
2021/06/03 11:11:28;;;;;;;9.68;6.90;;;;;;;22.16;76.29;100577.34;5058685;28;19952;-75
2021/06/03 11:13:55;;;;;;;10.38;7.32;;;;;;;21.83;79.83;100581.50;5058929;28;20110;-75
2021/06/03 11:16:27;;;;;;;15.55;8.18;;;;;;;21.67;84.30;100575.88;5058484;28;20056;-75
2021/06/03 11:18:53;;;;;;;12.52;8.25;;;;;;;21.54;87.80;100579.00;5054079;28;20320;-74
2021/06/03 11:21:38;;;;;;;13.48;7.60;;;;;;;21.32;87.65;100574.88;5038513;28;20045;-74
2021/06/03 11:24:05;;;;;;;11.25;8.23;;;;;;;21.05;91.84;100577.50;5038463;28;20048;-75
2021/06/03 11:26:40;;;;;;;12.63;8.25;;;;;;;20.84;92.85;100580.47;5038674;28;20049;-76
2021/06/03 11:29:28;;;;;;;13.90;8.85;;;;;;;20.68;94.93;100576.53;5038336;28;20123;-74
2021/06/03 11:32:01;;;;;;;12.15;9.68;;;;;;;20.57;95.35;100574.00;5038669;28;20049;-75
2021/06/03 11:34:50;;;;;;;14.20;9.52;;;;;;;20.48;95.86;100571.19;5038170;28;20511;-75
2021/06/03 11:37:36;;;;;;;14.88;9.27;;;;;;;20.46;95.62;100577.75;5038456;28;20115;-74
2021/06/03 11:40:06;;;;;;;14.05;10.10;;;;;;;20.41;97.39;100578.19;5038052;28;20045;-74
2021/06/03 11:42:41;;;;;;;17.25;10.00;;;;;;;20.41;97.16;100577.34;5038299;28;20049;-74